createdAt,value
2023-01-29T00:03:05.913Z,100496.56
2023-01-29T00:07:17.851Z,100494.72
2023-01-29T00:11:21.674Z,100482.56
2023-01-29T00:15:27.009Z,100465.81
2023-01-29T00:19:30.252Z,100474.03
2023-01-29T00:23:35.253Z,100470.03
2023-01-29T00:27:38.747Z,100466.50
2023-01-29T00:31:42.010Z,100441.88
2023-01-29T00:35:45.765Z,100457.63
2023-01-29T00:39:56.196Z,100462.25
2023-01-29T00:44:20.013Z,100467.56
2023-01-29T00:48:23.953Z,100474.41
2023-01-29T00:52:30.622Z,100478.94
2023-01-29T00:56:37.508Z,100474.13
2023-01-29T01:00:41.391Z,100485.63
2023-01-29T01:04:43.748Z,100491.13
2023-01-29T01:09:07.493Z,100492.13
2023-01-29T01:13:13.998Z,100497.72
2023-01-29T01:17:20.147Z,100500.56
2023-01-29T01:21:27.244Z,100500.31
2023-01-29T01:25:31.038Z,100498.75
2023-01-29T01:29:39.942Z,100487.31
2023-01-29T01:33:54.501Z,100485.09
2023-01-29T01:37:57.714Z,100459.09
2023-01-29T01:42:01.424Z,100461.88
2023-01-29T01:46:06.599Z,100469.50
2023-01-29T01:50:13.347Z,100454.09
2023-01-29T01:54:22.025Z,100461.28
2023-01-29T01:58:28.527Z,100457.84
2023-01-29T02:02:50.901Z,100460.16
2023-01-29T02:07:13.399Z,100452.81
2023-01-29T02:11:28.823Z,100455.75
2023-01-29T02:15:31.982Z,100451.59
2023-01-29T02:19:45.569Z,100455.06
2023-01-29T02:24:06.856Z,100455.16
2023-01-29T02:28:23.811Z,100448.50
2023-01-29T02:32:36.894Z,100442.34
2023-01-29T02:36:45.670Z,100437.34
2023-01-29T02:40:54.036Z,100432.84
2023-01-29T02:45:06.896Z,100436.47
2023-01-29T02:49:13.689Z,100431.47
2023-01-29T02:53:19.124Z,100428.88
2023-01-29T02:57:29.400Z,100441.34
2023-01-29T03:01:40.279Z,100451.44
2023-01-29T03:05:51.299Z,100455.97
2023-01-29T03:09:54.592Z,100453.06
2023-01-29T03:19:23.876Z,100455.84
2023-01-29T03:23:47.378Z,100452.28
2023-01-29T03:28:08.736Z,100456.47
2023-01-29T03:32:12.631Z,100445.19
2023-01-29T03:36:20.642Z,100447.09
2023-01-29T03:40:24.368Z,100432.16
2023-01-29T03:44:35.390Z,100451.41
2023-01-29T03:48:41.780Z,100456.47
2023-01-29T03:52:49.999Z,100462.47
2023-01-29T03:56:59.661Z,100452.53
2023-01-29T04:01:05.361Z,100449.88
2023-01-29T04:05:13.792Z,100444.88
2023-01-29T04:09:22.252Z,100448.78
2023-01-29T04:13:26.839Z,100445.53
2023-01-29T04:17:35.029Z,100460.53
2023-01-29T04:21:38.886Z,100422.06
2023-01-29T04:25:48.727Z,100440.50
2023-01-29T04:30:00.510Z,100441.38
2023-01-29T04:34:20.731Z,100441.78
2023-01-29T04:38:39.432Z,100438.81
2023-01-29T04:42:55.911Z,100439.31
2023-01-29T04:47:07.455Z,100451.78
2023-01-29T04:51:20.872Z,100454.81
2023-01-29T04:55:40.091Z,100444.66
2023-01-29T04:59:50.733Z,100471.44
2023-01-29T05:03:56.649Z,100460.53
2023-01-29T05:08:01.909Z,100451.66
2023-01-29T05:12:06.836Z,100449.75
2023-01-29T05:16:17.713Z,100443.06
2023-01-29T05:20:22.240Z,100443.63
2023-01-29T05:24:27.839Z,100442.09
2023-01-29T05:28:32.000Z,100462.81
2023-01-29T05:32:40.094Z,100460.13
2023-01-29T05:36:50.015Z,100452.31
2023-01-29T05:40:54.459Z,100446.09
2023-01-29T05:45:02.310Z,100445.59
2023-01-29T05:49:08.850Z,100434.88
2023-01-29T05:53:12.547Z,100430.66
2023-01-29T05:57:19.522Z,100446.44
2023-01-29T06:01:28.206Z,100454.13
2023-01-29T06:05:34.075Z,100433.72
2023-01-29T06:09:37.614Z,100436.94
2023-01-29T06:13:41.761Z,100438.03
2023-01-29T06:17:47.294Z,100433.81
2023-01-29T06:21:52.766Z,100436.78
2023-01-29T06:25:56.100Z,100453.78
2023-01-29T06:29:59.382Z,100458.78
2023-01-29T06:34:03.083Z,100461.97
2023-01-29T06:38:07.446Z,100463.59
2023-01-29T06:42:11.257Z,100458.00
2023-01-29T06:46:14.614Z,100467.25
2023-01-29T06:50:19.353Z,100464.84
2023-01-29T06:54:23.942Z,100460.69
2023-01-29T06:58:27.247Z,100450.28
2023-01-29T07:02:31.009Z,100444.75
2023-01-29T07:06:34.647Z,100461.78
2023-01-29T07:10:39.556Z,100459.06
2023-01-29T07:14:42.387Z,100467.31
2023-01-29T07:18:45.847Z,100475.31
2023-01-29T07:22:48.706Z,100471.94
2023-01-29T07:26:53.759Z,100462.72
2023-01-29T07:30:58.336Z,100465.50
2023-01-29T07:35:01.242Z,100460.06
2023-01-29T07:39:04.406Z,100467.25
2023-01-29T07:43:09.378Z,100462.22
2023-01-29T07:47:13.083Z,100467.75
2023-01-29T07:51:18.188Z,100480.28
2023-01-29T07:55:21.007Z,100491.97
2023-01-29T07:59:25.522Z,100494.56
2023-01-29T08:03:28.371Z,100487.59
2023-01-29T08:07:31.269Z,100522.06
2023-01-29T08:11:34.584Z,100510.16
2023-01-29T08:15:39.502Z,100509.81
2023-01-29T08:19:42.483Z,100503.25
2023-01-29T08:23:46.007Z,100486.66
2023-01-29T08:27:49.555Z,100496.22
2023-01-29T08:31:54.641Z,100502.31
2023-01-29T08:35:58.335Z,100500.75
2023-01-29T08:40:01.619Z,100499.25
2023-01-29T08:44:08.239Z,100501.56
2023-01-29T08:48:16.662Z,100489.28
2023-01-29T08:52:23.499Z,100478.56
2023-01-29T08:56:30.781Z,100464.72
2023-01-29T09:00:37.832Z,100474.63
2023-01-29T09:04:47.091Z,100487.41
2023-01-29T09:08:57.129Z,100482.16
2023-01-29T09:13:00.967Z,100501.97
2023-01-29T09:17:03.775Z,100496.03
2023-01-29T09:21:21.870Z,100505.09
2023-01-29T09:25:33.137Z,100496.38
2023-01-29T09:29:37.562Z,100485.28
2023-01-29T09:33:43.178Z,100498.66
2023-01-29T09:37:50.855Z,100506.97
2023-01-29T09:42:03.370Z,100494.66
2023-01-29T09:46:09.898Z,100510.00
2023-01-29T09:50:20.888Z,100498.34
2023-01-29T09:54:26.497Z,100489.88
2023-01-29T09:58:36.185Z,100504.81
2023-01-29T10:03:08.581Z,100493.28
2023-01-29T10:07:26.685Z,100500.38
2023-01-29T10:11:39.667Z,100493.28
2023-01-29T10:15:54.094Z,100490.19
2023-01-29T10:20:22.997Z,100492.41
2023-01-29T10:24:37.277Z,100500.50
2023-01-29T10:28:48.097Z,100490.50
2023-01-29T10:32:52.822Z,100502.22
2023-01-29T10:36:58.162Z,100487.22
2023-01-29T10:45:44.217Z,100481.28
2023-01-29T10:50:20.798Z,100473.38
2023-01-29T10:54:42.806Z,100469.78
2023-01-29T10:58:53.433Z,100452.25
2023-01-29T11:02:58.955Z,100455.66
2023-01-29T11:07:02.940Z,100448.59
2023-01-29T11:11:10.906Z,100423.41
2023-01-29T11:15:26.196Z,100436.19
2023-01-29T11:19:48.255Z,100421.91
2023-01-29T11:24:12.573Z,100422.59
2023-01-29T11:28:19.592Z,100413.06
2023-01-29T11:32:34.389Z,100407.44
2023-01-29T11:36:41.073Z,100379.56
2023-01-29T11:40:46.347Z,100382.59
2023-01-29T11:44:50.547Z,100373.59
2023-01-29T11:49:09.945Z,100366.19
2023-01-29T11:53:36.619Z,100370.31
2023-01-29T11:57:43.529Z,100368.63
2023-01-29T12:01:47.424Z,100361.66
2023-01-29T12:05:57.441Z,100349.53
2023-01-29T12:10:02.358Z,100349.84
2023-01-29T12:14:07.461Z,100344.78
2023-01-29T12:18:16.102Z,100345.66
2023-01-29T12:22:23.988Z,100352.53
2023-01-29T12:26:32.896Z,100349.50
2023-01-29T12:30:45.442Z,100353.47
2023-01-29T12:34:53.440Z,100347.13
2023-01-29T12:38:59.174Z,100329.06
2023-01-29T12:43:07.710Z,100315.88
2023-01-29T12:47:22.706Z,100310.81
2023-01-29T12:51:28.323Z,100317.81
2023-01-29T12:55:36.235Z,100309.19
2023-01-29T12:59:44.037Z,100307.84
2023-01-29T13:03:54.370Z,100292.88
2023-01-29T13:08:03.398Z,100295.50
2023-01-29T13:12:13.625Z,100282.31
2023-01-29T13:16:23.194Z,100266.66
2023-01-29T13:20:30.236Z,100266.06
2023-01-29T13:24:38.321Z,100269.00
2023-01-29T13:28:41.818Z,100270.41
2023-01-29T13:32:54.620Z,100264.81
2023-01-29T13:37:01.614Z,100264.53
2023-01-29T13:41:09.981Z,100264.69
2023-01-29T13:45:22.351Z,100261.59
2023-01-29T13:49:32.135Z,100266.56
2023-01-29T13:53:38.557Z,100290.38
2023-01-29T13:57:56.011Z,100278.16
2023-01-29T14:02:22.075Z,100273.84
2023-01-29T14:06:48.007Z,100266.66
2023-01-29T14:11:32.953Z,100265.16
2023-01-29T14:15:40.325Z,100259.56
2023-01-29T14:19:48.983Z,100259.72
2023-01-29T14:23:54.837Z,100260.84
2023-01-29T14:27:58.763Z,100257.16
2023-01-29T14:32:08.490Z,100254.50
2023-01-29T14:36:19.025Z,100249.78
2023-01-29T14:40:30.162Z,100234.78
2023-01-29T14:45:16.199Z,100232.44
2023-01-29T14:50:02.437Z,100234.28
2023-01-29T14:54:08.709Z,100228.41
2023-01-29T14:58:16.967Z,100203.03
2023-01-29T15:02:25.530Z,100214.66
2023-01-29T15:06:33.393Z,100221.34
2023-01-29T15:10:43.432Z,100216.81
2023-01-29T15:14:55.179Z,100229.84
2023-01-29T15:19:20.614Z,100238.94
2023-01-29T15:23:27.374Z,100231.03
2023-01-29T15:27:31.342Z,100236.50
2023-01-29T15:31:48.064Z,100226.97
2023-01-29T15:36:06.733Z,100227.06
2023-01-29T15:40:23.518Z,100239.63
2023-01-29T15:44:29.603Z,100227.06
2023-01-29T15:48:43.669Z,100228.16
2023-01-29T15:52:53.515Z,100203.09
2023-01-29T15:56:59.089Z,100170.81
2023-01-29T16:01:06.967Z,100201.22
2023-01-29T16:05:20.876Z,100199.69
2023-01-29T16:09:27.054Z,100205.59
2023-01-29T16:13:31.804Z,100204.06
2023-01-29T16:17:38.922Z,100190.53
2023-01-29T16:21:46.117Z,100198.63
2023-01-29T16:25:51.077Z,100197.16
2023-01-29T16:29:54.574Z,100197.56
2023-01-29T16:33:59.096Z,100205.47
2023-01-29T16:38:17.312Z,100199.91
2023-01-29T16:42:26.511Z,100208.16
2023-01-29T16:46:37.283Z,100195.56
2023-01-29T16:50:54.315Z,100202.16
2023-01-29T16:55:16.987Z,100203.78
2023-01-29T16:59:31.349Z,100213.72
2023-01-29T17:03:35.962Z,100224.97
2023-01-29T17:07:44.187Z,100219.16
2023-01-29T17:11:53.184Z,100222.25
2023-01-29T17:16:03.615Z,100216.00
2023-01-29T17:20:17.511Z,100217.34
2023-01-29T17:24:28.167Z,100210.78
2023-01-29T17:28:34.179Z,100228.94
2023-01-29T17:32:44.987Z,100228.94
2023-01-29T17:36:57.016Z,100241.53
2023-01-29T17:41:06.146Z,100238.19
2023-01-29T17:45:12.221Z,100245.22
2023-01-29T17:49:30.667Z,100244.13
2023-01-29T17:53:45.444Z,100243.91
2023-01-29T17:57:53.116Z,100243.56
2023-01-29T18:01:58.514Z,100242.94
2023-01-29T18:06:02.345Z,100250.91
2023-01-29T18:10:06.766Z,100249.47
2023-01-29T18:14:14.292Z,100246.56
2023-01-29T18:18:23.462Z,100239.28
2023-01-29T18:22:27.853Z,100239.44
2023-01-29T18:26:30.855Z,100236.81
2023-01-29T18:30:34.396Z,100236.56
2023-01-29T18:34:41.504Z,100237.16
2023-01-29T18:38:46.121Z,100221.38
2023-01-29T18:42:52.695Z,100233.59
2023-01-29T18:46:58.672Z,100217.41
2023-01-29T18:51:03.180Z,100238.09
2023-01-29T18:55:07.101Z,100228.50
2023-01-29T18:59:11.939Z,100230.94
2023-01-29T19:03:15.446Z,100227.97
2023-01-29T19:07:19.859Z,100235.91
2023-01-29T19:11:23.728Z,100236.16
2023-01-29T19:15:27.114Z,100236.38
2023-01-29T19:19:31.483Z,100241.19
2023-01-29T19:23:46.695Z,100219.81
2023-01-29T19:27:53.383Z,100237.06
2023-01-29T19:31:56.674Z,100238.50
2023-01-29T19:36:00.783Z,100220.03
2023-01-29T19:40:06.338Z,100224.38
2023-01-29T19:44:09.410Z,100225.50
2023-01-29T19:48:14.763Z,100208.84
2023-01-29T19:52:49.695Z,100221.75
2023-01-29T19:56:55.208Z,100218.06
2023-01-29T20:00:59.374Z,100199.69
2023-01-29T20:05:13.421Z,100191.75
2023-01-29T20:09:18.124Z,100191.63
2023-01-29T20:13:23.562Z,100187.50
2023-01-29T20:17:27.383Z,100188.78
2023-01-29T20:21:31.387Z,100189.16
2023-01-29T20:25:35.966Z,100188.25
2023-01-29T20:29:41.464Z,100191.69
2023-01-29T20:33:44.759Z,100184.97
2023-01-29T20:37:51.596Z,100176.47
2023-01-29T20:41:57.527Z,100180.75
2023-01-29T20:46:04.233Z,100172.63
2023-01-29T20:50:11.053Z,100163.84
2023-01-29T20:54:23.031Z,100162.88
2023-01-29T20:58:27.515Z,100161.16
2023-01-29T21:02:37.553Z,100153.16
2023-01-29T21:06:41.208Z,100144.91
2023-01-29T21:10:46.170Z,100134.97
2023-01-29T21:14:50.167Z,100130.56
2023-01-29T21:19:01.021Z,100132.75
2023-01-29T21:23:10.302Z,100125.56
2023-01-29T21:27:15.902Z,100127.84
2023-01-29T21:31:20.581Z,100124.97
2023-01-29T21:35:26.095Z,100115.09
2023-01-29T21:39:33.350Z,100118.38
2023-01-29T21:43:40.193Z,100118.19
2023-01-29T21:47:44.659Z,100121.09
2023-01-29T21:51:49.081Z,100113.53
2023-01-29T21:55:56.127Z,100102.25
2023-01-29T22:00:00.721Z,100112.41
2023-01-29T22:04:03.786Z,100105.94
2023-01-29T22:08:09.928Z,100097.22
2023-01-29T22:12:13.968Z,100094.25
2023-01-29T22:16:18.733Z,100096.75
2023-01-29T22:20:29.838Z,100098.22
2023-01-29T22:24:36.004Z,100086.69
2023-01-29T22:28:39.754Z,100034.78
2023-01-29T22:32:51.015Z,100075.00
2023-01-29T22:36:55.221Z,100075.34
2023-01-29T22:41:10.869Z,100083.63
2023-01-29T22:45:14.958Z,100084.59
2023-01-29T22:49:23.425Z,100085.06
2023-01-29T22:53:27.533Z,100095.94
2023-01-29T22:57:37.499Z,100081.63
2023-01-29T23:01:41.427Z,100052.19
2023-01-29T23:05:48.078Z,100077.63
2023-01-29T23:09:52.729Z,100051.78
2023-01-29T23:14:06.893Z,100045.47
2023-01-29T23:18:10.645Z,100048.38
2023-01-29T23:22:14.200Z,100063.66
2023-01-29T23:26:35.416Z,100051.78
2023-01-29T23:30:40.699Z,100041.25
2023-01-29T23:34:43.887Z,100039.59
2023-01-29T23:38:48.167Z,100039.31
2023-01-29T23:42:56.975Z,100058.81
2023-01-29T23:47:02.644Z,100067.06
2023-01-29T23:51:07.615Z,100059.75
2023-01-29T23:55:14.390Z,100055.88
2023-01-29T23:59:18.398Z,100037.38
